sensor_id;sensor_type;location;lat;lon;timestamp;P1;durP1;ratioP1;P2;durP2;ratioP2
54517;SDS011;40423;53.176;6.002;2023-01-16T00:01:20;7.50;;;4.18;;
54517;SDS011;40423;53.176;6.002;2023-01-16T00:03:50;6.45;;;4.13;;
54517;SDS011;40423;53.176;6.002;2023-01-16T00:06:15;5.32;;;3.72;;
54517;SDS011;40423;53.176;6.002;2023-01-16T00:08:42;8.48;;;3.92;;
54517;SDS011;40423;53.176;6.002;2023-01-16T00:11:08;6.95;;;3.33;;
54517;SDS011;40423;53.176;6.002;2023-01-16T00:13:35;8.23;;;3.13;;
54517;SDS011;40423;53.176;6.002;2023-01-16T00:16:01;4.93;;;3.17;;
54517;SDS011;40423;53.176;6.002;2023-01-16T00:18:27;6.18;;;3.05;;
54517;SDS011;40423;53.176;6.002;2023-01-16T00:20:55;5.97;;;3.33;;
54517;SDS011;40423;53.176;6.002;2023-01-16T00:23:21;5.40;;;2.72;;
54517;SDS011;40423;53.176;6.002;2023-01-16T00:25:47;7.90;;;3.38;;
54517;SDS011;40423;53.176;6.002;2023-01-16T00:28:13;6.60;;;3.60;;
54517;SDS011;40423;53.176;6.002;2023-01-16T00:30:39;5.53;;;3.63;;
54517;SDS011;40423;53.176;6.002;2023-01-16T00:33:05;7.30;;;4.47;;
54517;SDS011;40423;53.176;6.002;2023-01-16T00:35:31;7.93;;;4.45;;
54517;SDS011;40423;53.176;6.002;2023-01-16T00:38:00;7.50;;;4.10;;
54517;SDS011;40423;53.176;6.002;2023-01-16T00:40:26;9.40;;;4.50;;
54517;SDS011;40423;53.176;6.002;2023-01-16T00:42:53;9.05;;;4.75;;
54517;SDS011;40423;53.176;6.002;2023-01-16T00:45:19;8.50;;;4.53;;
54517;SDS011;40423;53.176;6.002;2023-01-16T00:47:44;7.82;;;4.32;;
54517;SDS011;40423;53.176;6.002;2023-01-16T00:50:10;7.75;;;4.50;;
54517;SDS011;40423;53.176;6.002;2023-01-16T00:52:36;8.55;;;4.38;;
54517;SDS011;40423;53.176;6.002;2023-01-16T00:55:02;8.68;;;4.40;;
54517;SDS011;40423;53.176;6.002;2023-01-16T00:57:28;11.27;;;5.18;;
54517;SDS011;40423;53.176;6.002;2023-01-16T00:59:54;9.88;;;4.78;;
54517;SDS011;40423;53.176;6.002;2023-01-16T01:02:20;9.95;;;4.82;;
54517;SDS011;40423;53.176;6.002;2023-01-16T01:04:48;10.43;;;6.45;;
54517;SDS011;40423;53.176;6.002;2023-01-16T01:07:13;10.70;;;5.57;;
54517;SDS011;40423;53.176;6.002;2023-01-16T01:09:39;10.65;;;5.25;;
54517;SDS011;40423;53.176;6.002;2023-01-16T01:12:05;9.60;;;5.00;;
54517;SDS011;40423;53.176;6.002;2023-01-16T01:14:31;7.20;;;5.07;;
54517;SDS011;40423;53.176;6.002;2023-01-16T01:16:56;10.55;;;5.40;;
54517;SDS011;40423;53.176;6.002;2023-01-16T01:19:22;10.13;;;5.25;;
54517;SDS011;40423;53.176;6.002;2023-01-16T01:21:48;11.75;;;5.32;;
54517;SDS011;40423;53.176;6.002;2023-01-16T01:24:13;7.50;;;4.82;;
54517;SDS011;40423;53.176;6.002;2023-01-16T01:26:39;10.07;;;5.07;;
54517;SDS011;40423;53.176;6.002;2023-01-16T01:29:05;13.23;;;5.55;;
54517;SDS011;40423;53.176;6.002;2023-01-16T01:31:31;8.20;;;4.60;;
54517;SDS011;40423;53.176;6.002;2023-01-16T01:33:56;7.43;;;5.25;;
54517;SDS011;40423;53.176;6.002;2023-01-16T01:36:22;8.60;;;5.45;;
54517;SDS011;40423;53.176;6.002;2023-01-16T01:38:48;8.93;;;5.55;;
54517;SDS011;40423;53.176;6.002;2023-01-16T01:41:15;18.67;;;7.47;;
54517;SDS011;40423;53.176;6.002;2023-01-16T01:43:45;7.45;;;4.60;;
54517;SDS011;40423;53.176;6.002;2023-01-16T01:49:13;14.52;;;5.30;;
54517;SDS011;40423;53.176;6.002;2023-01-16T01:51:49;9.85;;;4.70;;
54517;SDS011;40423;53.176;6.002;2023-01-16T01:54:20;8.77;;;4.43;;
54517;SDS011;40423;53.176;6.002;2023-01-16T01:59:27;13.75;;;4.90;;
54517;SDS011;40423;53.176;6.002;2023-01-16T02:01:57;8.73;;;4.38;;
54517;SDS011;40423;53.176;6.002;2023-01-16T02:04:27;8.20;;;4.65;;
54517;SDS011;40423;53.176;6.002;2023-01-16T02:06:56;9.52;;;4.47;;
54517;SDS011;40423;53.176;6.002;2023-01-16T02:09:26;9.60;;;4.63;;
54517;SDS011;40423;53.176;6.002;2023-01-16T02:11:56;12.20;;;4.40;;
54517;SDS011;40423;53.176;6.002;2023-01-16T02:14:35;11.70;;;4.40;;
54517;SDS011;40423;53.176;6.002;2023-01-16T02:17:07;8.48;;;3.97;;
54517;SDS011;40423;53.176;6.002;2023-01-16T02:41:51;8.25;;;3.75;;
54517;SDS011;40423;53.176;6.002;2023-01-16T02:50:07;7.53;;;4.22;;
54517;SDS011;40423;53.176;6.002;2023-01-16T02:55:51;7.05;;;4.20;;
54517;SDS011;40423;53.176;6.002;2023-01-16T02:58:41;8.73;;;3.67;;
54517;SDS011;40423;53.176;6.002;2023-01-16T03:01:10;7.47;;;3.85;;
54517;SDS011;40423;53.176;6.002;2023-01-16T03:14:51;8.30;;;4.18;;
54517;SDS011;40423;53.176;6.002;2023-01-16T03:17:50;7.10;;;4.40;;
54517;SDS011;40423;53.176;6.002;2023-01-16T03:25:48;9.88;;;5.22;;
54517;SDS011;40423;53.176;6.002;2023-01-16T03:30:55;12.05;;;5.55;;
54517;SDS011;40423;53.176;6.002;2023-01-16T03:39:21;11.60;;;6.68;;
54517;SDS011;40423;53.176;6.002;2023-01-16T03:41:53;12.00;;;6.40;;
54517;SDS011;40423;53.176;6.002;2023-01-16T03:44:27;16.48;;;7.45;;
54517;SDS011;40423;53.176;6.002;2023-01-16T03:46:58;17.77;;;8.00;;
54517;SDS011;40423;53.176;6.002;2023-01-16T03:49:33;14.07;;;7.97;;
54517;SDS011;40423;53.176;6.002;2023-01-16T03:52:03;13.07;;;8.15;;
54517;SDS011;40423;53.176;6.002;2023-01-16T03:54:32;11.80;;;7.95;;
54517;SDS011;40423;53.176;6.002;2023-01-16T03:59:52;12.95;;;7.57;;
54517;SDS011;40423;53.176;6.002;2023-01-16T04:04:59;14.77;;;7.78;;
54517;SDS011;40423;53.176;6.002;2023-01-16T04:07:45;11.73;;;6.63;;
54517;SDS011;40423;53.176;6.002;2023-01-16T04:10:21;13.73;;;8.18;;
54517;SDS011;40423;53.176;6.002;2023-01-16T04:12:51;10.32;;;7.10;;
54517;SDS011;40423;53.176;6.002;2023-01-16T04:15:23;14.20;;;7.43;;
54517;SDS011;40423;53.176;6.002;2023-01-16T04:17:51;17.58;;;7.35;;
54517;SDS011;40423;53.176;6.002;2023-01-16T04:20:17;11.52;;;7.68;;
54517;SDS011;40423;53.176;6.002;2023-01-16T04:22:48;10.48;;;6.93;;
54517;SDS011;40423;53.176;6.002;2023-01-16T04:25:14;13.63;;;7.97;;
54517;SDS011;40423;53.176;6.002;2023-01-16T04:27:41;11.60;;;7.53;;
54517;SDS011;40423;53.176;6.002;2023-01-16T04:30:07;14.63;;;8.07;;
54517;SDS011;40423;53.176;6.002;2023-01-16T04:32:33;15.30;;;8.02;;
54517;SDS011;40423;53.176;6.002;2023-01-16T04:34:59;18.20;;;8.68;;
54517;SDS011;40423;53.176;6.002;2023-01-16T04:37:25;16.00;;;9.23;;
54517;SDS011;40423;53.176;6.002;2023-01-16T04:39:50;19.90;;;9.95;;
54517;SDS011;40423;53.176;6.002;2023-01-16T04:42:17;14.07;;;9.52;;
54517;SDS011;40423;53.176;6.002;2023-01-16T04:44:43;15.32;;;9.40;;
54517;SDS011;40423;53.176;6.002;2023-01-16T04:47:10;16.30;;;10.63;;
54517;SDS011;40423;53.176;6.002;2023-01-16T04:49:38;16.88;;;10.23;;
54517;SDS011;40423;53.176;6.002;2023-01-16T04:52:07;17.38;;;10.70;;
54517;SDS011;40423;53.176;6.002;2023-01-16T04:54:33;16.67;;;10.43;;
54517;SDS011;40423;53.176;6.002;2023-01-16T04:56:58;17.60;;;10.32;;
54517;SDS011;40423;53.176;6.002;2023-01-16T04:59:29;19.15;;;11.07;;
54517;SDS011;40423;53.176;6.002;2023-01-16T05:01:54;19.88;;;11.27;;
54517;SDS011;40423;53.176;6.002;2023-01-16T05:04:20;19.40;;;11.48;;
54517;SDS011;40423;53.176;6.002;2023-01-16T05:06:46;17.00;;;11.20;;
54517;SDS011;40423;53.176;6.002;2023-01-16T05:09:12;20.02;;;12.10;;
54517;SDS011;40423;53.176;6.002;2023-01-16T05:11:38;22.75;;;11.35;;
54517;SDS011;40423;53.176;6.002;2023-01-16T05:14:04;19.27;;;12.48;;
54517;SDS011;40423;53.176;6.002;2023-01-16T05:16:33;19.40;;;10.98;;
54517;SDS011;40423;53.176;6.002;2023-01-16T05:19:03;20.65;;;12.43;;
54517;SDS011;40423;53.176;6.002;2023-01-16T05:21:30;22.48;;;12.23;;
54517;SDS011;40423;53.176;6.002;2023-01-16T05:23:56;17.52;;;10.98;;
54517;SDS011;40423;53.176;6.002;2023-01-16T05:26:22;21.35;;;12.52;;
54517;SDS011;40423;53.176;6.002;2023-01-16T05:28:48;19.38;;;11.70;;
54517;SDS011;40423;53.176;6.002;2023-01-16T05:31:17;21.48;;;12.55;;
54517;SDS011;40423;53.176;6.002;2023-01-16T05:33:42;22.20;;;12.50;;
54517;SDS011;40423;53.176;6.002;2023-01-16T05:36:08;20.45;;;12.60;;
54517;SDS011;40423;53.176;6.002;2023-01-16T05:38:34;23.25;;;13.25;;
54517;SDS011;40423;53.176;6.002;2023-01-16T05:41:00;21.05;;;12.82;;
54517;SDS011;40423;53.176;6.002;2023-01-16T05:43:25;20.23;;;13.68;;
54517;SDS011;40423;53.176;6.002;2023-01-16T05:45:51;20.30;;;12.48;;
54517;SDS011;40423;53.176;6.002;2023-01-16T05:48:17;21.58;;;11.75;;
54517;SDS011;40423;53.176;6.002;2023-01-16T05:50:43;19.50;;;13.25;;
54517;SDS011;40423;53.176;6.002;2023-01-16T05:53:08;22.95;;;14.02;;
54517;SDS011;40423;53.176;6.002;2023-01-16T05:55:45;22.50;;;13.35;;
54517;SDS011;40423;53.176;6.002;2023-01-16T05:58:14;24.42;;;12.90;;
54517;SDS011;40423;53.176;6.002;2023-01-16T06:00:41;21.88;;;13.75;;
54517;SDS011;40423;53.176;6.002;2023-01-16T06:03:07;23.08;;;13.88;;
54517;SDS011;40423;53.176;6.002;2023-01-16T06:05:34;23.80;;;14.60;;
54517;SDS011;40423;53.176;6.002;2023-01-16T06:08:00;21.63;;;14.35;;
54517;SDS011;40423;53.176;6.002;2023-01-16T06:10:26;25.15;;;14.15;;
54517;SDS011;40423;53.176;6.002;2023-01-16T06:12:52;28.10;;;14.85;;
54517;SDS011;40423;53.176;6.002;2023-01-16T06:15:18;22.02;;;14.50;;
54517;SDS011;40423;53.176;6.002;2023-01-16T06:17:44;22.63;;;14.65;;
54517;SDS011;40423;53.176;6.002;2023-01-16T06:20:11;25.98;;;14.88;;
54517;SDS011;40423;53.176;6.002;2023-01-16T06:22:37;19.15;;;13.20;;
54517;SDS011;40423;53.176;6.002;2023-01-16T06:25:03;25.60;;;13.27;;
54517;SDS011;40423;53.176;6.002;2023-01-16T06:27:29;22.38;;;13.18;;
54517;SDS011;40423;53.176;6.002;2023-01-16T06:29:57;21.30;;;12.10;;
54517;SDS011;40423;53.176;6.002;2023-01-16T06:32:23;22.60;;;13.35;;
54517;SDS011;40423;53.176;6.002;2023-01-16T06:34:48;19.52;;;11.98;;
54517;SDS011;40423;53.176;6.002;2023-01-16T06:37:14;19.33;;;13.27;;
54517;SDS011;40423;53.176;6.002;2023-01-16T06:39:40;28.98;;;12.63;;
54517;SDS011;40423;53.176;6.002;2023-01-16T06:42:08;23.75;;;12.85;;
54517;SDS011;40423;53.176;6.002;2023-01-16T06:44:34;22.10;;;11.80;;
54517;SDS011;40423;53.176;6.002;2023-01-16T06:47:00;20.90;;;12.50;;
54517;SDS011;40423;53.176;6.002;2023-01-16T06:49:26;24.27;;;12.60;;
54517;SDS011;40423;53.176;6.002;2023-01-16T06:51:52;22.30;;;12.85;;
54517;SDS011;40423;53.176;6.002;2023-01-16T06:54:18;16.13;;;11.93;;
54517;SDS011;40423;53.176;6.002;2023-01-16T06:56:43;24.25;;;12.70;;
54517;SDS011;40423;53.176;6.002;2023-01-16T06:59:09;19.85;;;12.70;;
54517;SDS011;40423;53.176;6.002;2023-01-16T07:01:35;24.50;;;13.02;;
54517;SDS011;40423;53.176;6.002;2023-01-16T07:04:01;22.15;;;12.95;;
54517;SDS011;40423;53.176;6.002;2023-01-16T07:06:31;20.80;;;12.05;;
54517;SDS011;40423;53.176;6.002;2023-01-16T07:08:58;22.98;;;12.13;;
54517;SDS011;40423;53.176;6.002;2023-01-16T07:11:23;19.13;;;11.57;;
54517;SDS011;40423;53.176;6.002;2023-01-16T07:13:49;19.35;;;10.13;;
54517;SDS011;40423;53.176;6.002;2023-01-16T07:16:35;17.05;;;11.23;;
54517;SDS011;40423;53.176;6.002;2023-01-16T07:19:19;19.40;;;11.05;;
54517;SDS011;40423;53.176;6.002;2023-01-16T07:22:03;18.95;;;9.35;;
54517;SDS011;40423;53.176;6.002;2023-01-16T07:24:48;17.08;;;9.68;;
54517;SDS011;40423;53.176;6.002;2023-01-16T07:27:13;18.15;;;10.13;;
54517;SDS011;40423;53.176;6.002;2023-01-16T07:29:43;18.88;;;9.05;;
54517;SDS011;40423;53.176;6.002;2023-01-16T07:32:08;15.45;;;8.75;;
54517;SDS011;40423;53.176;6.002;2023-01-16T07:34:34;12.73;;;8.25;;
54517;SDS011;40423;53.176;6.002;2023-01-16T07:37:03;13.65;;;9.23;;
54517;SDS011;40423;53.176;6.002;2023-01-16T07:39:29;12.38;;;7.72;;
54517;SDS011;40423;53.176;6.002;2023-01-16T07:42:04;16.30;;;8.13;;
54517;SDS011;40423;53.176;6.002;2023-01-16T07:44:32;14.10;;;7.40;;
54517;SDS011;40423;53.176;6.002;2023-01-16T07:46:58;13.23;;;8.00;;
54517;SDS011;40423;53.176;6.002;2023-01-16T07:49:24;14.27;;;7.32;;
54517;SDS011;40423;53.176;6.002;2023-01-16T07:51:53;10.88;;;7.00;;
54517;SDS011;40423;53.176;6.002;2023-01-16T07:54:18;16.08;;;6.93;;
54517;SDS011;40423;53.176;6.002;2023-01-16T07:56:46;12.52;;;6.65;;
54517;SDS011;40423;53.176;6.002;2023-01-16T07:59:12;11.38;;;6.68;;
54517;SDS011;40423;53.176;6.002;2023-01-16T08:01:38;12.18;;;6.68;;
54517;SDS011;40423;53.176;6.002;2023-01-16T08:04:04;13.48;;;6.80;;
54517;SDS011;40423;53.176;6.002;2023-01-16T08:06:32;12.02;;;6.55;;
54517;SDS011;40423;53.176;6.002;2023-01-16T08:08:59;11.95;;;5.78;;
54517;SDS011;40423;53.176;6.002;2023-01-16T08:11:25;14.57;;;6.53;;
54517;SDS011;40423;53.176;6.002;2023-01-16T08:14:06;13.15;;;6.25;;
54517;SDS011;40423;53.176;6.002;2023-01-16T08:16:32;17.30;;;6.90;;
54517;SDS011;40423;53.176;6.002;2023-01-16T08:18:58;16.50;;;5.85;;
54517;SDS011;40423;53.176;6.002;2023-01-16T08:21:24;15.57;;;5.80;;
54517;SDS011;40423;53.176;6.002;2023-01-16T08:23:53;12.40;;;5.32;;
54517;SDS011;40423;53.176;6.002;2023-01-16T08:26:18;13.43;;;6.43;;
54517;SDS011;40423;53.176;6.002;2023-01-16T08:28:44;13.85;;;6.40;;
54517;SDS011;40423;53.176;6.002;2023-01-16T08:31:11;11.85;;;5.10;;
54517;SDS011;40423;53.176;6.002;2023-01-16T08:33:39;12.10;;;5.35;;
54517;SDS011;40423;53.176;6.002;2023-01-16T08:36:09;11.10;;;5.20;;
54517;SDS011;40423;53.176;6.002;2023-01-16T08:38:36;9.45;;;5.68;;
54517;SDS011;40423;53.176;6.002;2023-01-16T08:41:02;8.70;;;5.00;;
54517;SDS011;40423;53.176;6.002;2023-01-16T08:43:28;13.55;;;5.05;;
54517;SDS011;40423;53.176;6.002;2023-01-16T08:46:15;16.80;;;5.68;;
54517;SDS011;40423;53.176;6.002;2023-01-16T08:49:02;9.23;;;5.32;;
54517;SDS011;40423;53.176;6.002;2023-01-16T08:51:48;16.58;;;6.03;;
54517;SDS011;40423;53.176;6.002;2023-01-16T08:54:16;14.07;;;5.53;;
54517;SDS011;40423;53.176;6.002;2023-01-16T08:56:42;14.70;;;6.40;;
54517;SDS011;40423;53.176;6.002;2023-01-16T08:59:11;12.57;;;5.75;;
54517;SDS011;40423;53.176;6.002;2023-01-16T09:01:39;11.02;;;5.55;;
54517;SDS011;40423;53.176;6.002;2023-01-16T09:04:06;16.27;;;6.28;;
54517;SDS011;40423;53.176;6.002;2023-01-16T09:06:34;11.68;;;5.25;;
54517;SDS011;40423;53.176;6.002;2023-01-16T09:09:02;14.55;;;6.68;;
54517;SDS011;40423;53.176;6.002;2023-01-16T09:11:32;15.32;;;6.75;;
54517;SDS011;40423;53.176;6.002;2023-01-16T09:14:20;8.52;;;5.18;;
54517;SDS011;40423;53.176;6.002;2023-01-16T09:16:46;10.50;;;5.63;;
54517;SDS011;40423;53.176;6.002;2023-01-16T09:19:12;10.88;;;5.53;;
54517;SDS011;40423;53.176;6.002;2023-01-16T09:21:38;10.52;;;5.57;;
54517;SDS011;40423;53.176;6.002;2023-01-16T09:24:03;15.88;;;6.03;;
54517;SDS011;40423;53.176;6.002;2023-01-16T09:26:29;11.95;;;6.10;;
54517;SDS011;40423;53.176;6.002;2023-01-16T09:28:58;13.15;;;5.78;;
54517;SDS011;40423;53.176;6.002;2023-01-16T09:31:24;13.88;;;5.90;;
54517;SDS011;40423;53.176;6.002;2023-01-16T09:33:52;10.63;;;5.35;;
54517;SDS011;40423;53.176;6.002;2023-01-16T09:36:19;10.10;;;5.35;;
54517;SDS011;40423;53.176;6.002;2023-01-16T09:38:45;13.85;;;6.05;;
54517;SDS011;40423;53.176;6.002;2023-01-16T09:41:13;9.35;;;5.78;;
54517;SDS011;40423;53.176;6.002;2023-01-16T09:43:59;11.15;;;5.38;;
54517;SDS011;40423;53.176;6.002;2023-01-16T09:46:27;12.70;;;5.57;;
54517;SDS011;40423;53.176;6.002;2023-01-16T09:48:59;12.57;;;5.55;;
54517;SDS011;40423;53.176;6.002;2023-01-16T09:51:32;9.90;;;5.70;;
54517;SDS011;40423;53.176;6.002;2023-01-16T09:57:04;12.52;;;6.45;;
54517;SDS011;40423;53.176;6.002;2023-01-16T09:59:56;14.63;;;6.30;;
54517;SDS011;40423;53.176;6.002;2023-01-16T10:02:28;11.13;;;5.30;;
54517;SDS011;40423;53.176;6.002;2023-01-16T10:04:59;11.27;;;5.32;;
54517;SDS011;40423;53.176;6.002;2023-01-16T10:07:40;8.05;;;5.03;;
54517;SDS011;40423;53.176;6.002;2023-01-16T10:22:06;10.85;;;4.63;;
54517;SDS011;40423;53.176;6.002;2023-01-16T10:27:16;8.15;;;4.90;;
54517;SDS011;40423;53.176;6.002;2023-01-16T10:29:57;8.90;;;4.35;;
54517;SDS011;40423;53.176;6.002;2023-01-16T10:35:42;9.15;;;4.45;;
54517;SDS011;40423;53.176;6.002;2023-01-16T10:38:17;7.28;;;5.00;;
54517;SDS011;40423;53.176;6.002;2023-01-16T10:47:28;8.68;;;3.80;;
54517;SDS011;40423;53.176;6.002;2023-01-16T10:50:17;7.68;;;4.00;;
54517;SDS011;40423;53.176;6.002;2023-01-16T10:52:46;7.30;;;3.55;;
54517;SDS011;40423;53.176;6.002;2023-01-16T10:55:13;7.38;;;3.55;;
54517;SDS011;40423;53.176;6.002;2023-01-16T10:57:48;5.10;;;2.28;;
54517;SDS011;40423;53.176;6.002;2023-01-16T11:00:18;5.35;;;2.80;;
54517;SDS011;40423;53.176;6.002;2023-01-16T11:02:50;5.93;;;3.43;;
54517;SDS011;40423;53.176;6.002;2023-01-16T11:05:24;5.68;;;3.20;;
54517;SDS011;40423;53.176;6.002;2023-01-16T11:08:09;2.73;;;2.00;;
54517;SDS011;40423;53.176;6.002;2023-01-16T11:10:38;3.92;;;1.95;;
54517;SDS011;40423;53.176;6.002;2023-01-16T11:13:13;5.60;;;1.85;;
54517;SDS011;40423;53.176;6.002;2023-01-16T11:16:08;3.33;;;1.60;;
54517;SDS011;40423;53.176;6.002;2023-01-16T11:19:16;2.65;;;1.73;;
54517;SDS011;40423;53.176;6.002;2023-01-16T11:22:00;6.38;;;1.80;;
54517;SDS011;40423;53.176;6.002;2023-01-16T11:24:32;4.80;;;2.15;;
54517;SDS011;40423;53.176;6.002;2023-01-16T11:27:01;2.75;;;1.77;;
54517;SDS011;40423;53.176;6.002;2023-01-16T11:29:34;4.05;;;1.70;;
54517;SDS011;40423;53.176;6.002;2023-01-16T11:32:08;3.85;;;1.30;;
54517;SDS011;40423;53.176;6.002;2023-01-16T11:34:37;2.42;;;1.33;;
54517;SDS011;40423;53.176;6.002;2023-01-16T11:37:09;2.67;;;1.40;;
54517;SDS011;40423;53.176;6.002;2023-01-16T11:39:37;2.20;;;1.30;;
54517;SDS011;40423;53.176;6.002;2023-01-16T11:42:04;3.38;;;1.35;;
54517;SDS011;40423;53.176;6.002;2023-01-16T11:44:58;3.85;;;1.27;;
54517;SDS011;40423;53.176;6.002;2023-01-16T11:47:53;3.15;;;1.40;;
54517;SDS011;40423;53.176;6.002;2023-01-16T11:50:21;1.75;;;1.25;;
54517;SDS011;40423;53.176;6.002;2023-01-16T11:52:57;1.83;;;1.10;;
54517;SDS011;40423;53.176;6.002;2023-01-16T11:55:29;1.70;;;1.20;;
54517;SDS011;40423;53.176;6.002;2023-01-16T11:58:14;2.67;;;1.25;;
54517;SDS011;40423;53.176;6.002;2023-01-16T12:01:13;3.53;;;1.30;;
54517;SDS011;40423;53.176;6.002;2023-01-16T12:14:33;4.07;;;1.70;;
54517;SDS011;40423;53.176;6.002;2023-01-16T12:19:59;2.95;;;1.70;;
54517;SDS011;40423;53.176;6.002;2023-01-16T12:22:49;2.17;;;1.80;;
54517;SDS011;40423;53.176;6.002;2023-01-16T12:25:32;2.75;;;1.85;;
54517;SDS011;40423;53.176;6.002;2023-01-16T12:28:12;2.97;;;1.88;;
54517;SDS011;40423;53.176;6.002;2023-01-16T12:36:43;3.50;;;2.35;;
54517;SDS011;40423;53.176;6.002;2023-01-16T12:39:30;3.40;;;2.15;;
54517;SDS011;40423;53.176;6.002;2023-01-16T12:51:19;4.20;;;3.35;;
54517;SDS011;40423;53.176;6.002;2023-01-16T12:59:34;5.65;;;3.15;;
54517;SDS011;40423;53.176;6.002;2023-01-16T13:02:14;7.47;;;3.80;;
54517;SDS011;40423;53.176;6.002;2023-01-16T13:04:51;4.05;;;3.22;;
54517;SDS011;40423;53.176;6.002;2023-01-16T13:07:25;4.90;;;3.00;;
54517;SDS011;40423;53.176;6.002;2023-01-16T13:12:45;3.85;;;2.80;;
54517;SDS011;40423;53.176;6.002;2023-01-16T13:15:34;5.78;;;4.35;;
54517;SDS011;40423;53.176;6.002;2023-01-16T13:20:59;5.47;;;3.30;;
54517;SDS011;40423;53.176;6.002;2023-01-16T13:23:33;4.20;;;3.22;;
54517;SDS011;40423;53.176;6.002;2023-01-16T13:26:08;5.30;;;3.67;;
54517;SDS011;40423;53.176;6.002;2023-01-16T13:34:18;6.38;;;4.38;;
54517;SDS011;40423;53.176;6.002;2023-01-16T13:42:52;5.75;;;3.53;;
54517;SDS011;40423;53.176;6.002;2023-01-16T13:45:48;5.22;;;3.60;;
54517;SDS011;40423;53.176;6.002;2023-01-16T13:48:36;4.50;;;3.90;;
54517;SDS011;40423;53.176;6.002;2023-01-16T13:51:12;6.05;;;3.88;;
54517;SDS011;40423;53.176;6.002;2023-01-16T13:53:39;6.13;;;4.43;;
54517;SDS011;40423;53.176;6.002;2023-01-16T13:56:22;6.32;;;4.38;;
54517;SDS011;40423;53.176;6.002;2023-01-16T13:59:00;5.95;;;3.83;;
54517;SDS011;40423;53.176;6.002;2023-01-16T14:04:10;8.30;;;4.28;;
54517;SDS011;40423;53.176;6.002;2023-01-16T14:09:57;6.25;;;5.30;;
54517;SDS011;40423;53.176;6.002;2023-01-16T14:13:00;8.05;;;4.55;;
54517;SDS011;40423;53.176;6.002;2023-01-16T14:15:46;7.57;;;5.38;;
54517;SDS011;40423;53.176;6.002;2023-01-16T14:18:37;6.57;;;5.13;;
54517;SDS011;40423;53.176;6.002;2023-01-16T14:21:04;7.55;;;5.00;;
54517;SDS011;40423;53.176;6.002;2023-01-16T14:23:44;8.30;;;5.63;;
54517;SDS011;40423;53.176;6.002;2023-01-16T14:31:52;6.60;;;4.97;;
54517;SDS011;40423;53.176;6.002;2023-01-16T14:34:23;7.07;;;4.80;;
54517;SDS011;40423;53.176;6.002;2023-01-16T14:36:53;7.03;;;4.50;;
54517;SDS011;40423;53.176;6.002;2023-01-16T14:39:28;5.47;;;4.72;;
54517;SDS011;40423;53.176;6.002;2023-01-16T14:42:02;6.00;;;4.38;;
54517;SDS011;40423;53.176;6.002;2023-01-16T14:47:55;7.32;;;4.93;;
54517;SDS011;40423;53.176;6.002;2023-01-16T14:54:22;7.60;;;5.20;;
54517;SDS011;40423;53.176;6.002;2023-01-16T14:57:15;7.80;;;5.97;;
54517;SDS011;40423;53.176;6.002;2023-01-16T14:59:52;6.65;;;5.13;;
54517;SDS011;40423;53.176;6.002;2023-01-16T15:05:06;7.05;;;6.13;;
54517;SDS011;40423;53.176;6.002;2023-01-16T15:10:28;10.18;;;5.65;;
54517;SDS011;40423;53.176;6.002;2023-01-16T15:13:16;11.60;;;6.22;;
54517;SDS011;40423;53.176;6.002;2023-01-16T15:18:31;5.70;;;4.80;;
54517;SDS011;40423;53.176;6.002;2023-01-16T15:21:17;8.65;;;6.05;;
54517;SDS011;40423;53.176;6.002;2023-01-16T15:24:04;6.05;;;5.05;;
54517;SDS011;40423;53.176;6.002;2023-01-16T15:31:36;9.15;;;6.93;;
54517;SDS011;40423;53.176;6.002;2023-01-16T15:36:39;7.20;;;6.13;;
54517;SDS011;40423;53.176;6.002;2023-01-16T15:41:50;10.90;;;6.60;;
54517;SDS011;40423;53.176;6.002;2023-01-16T15:44:38;10.32;;;7.88;;
54517;SDS011;40423;53.176;6.002;2023-01-16T15:47:28;14.45;;;11.10;;
54517;SDS011;40423;53.176;6.002;2023-01-16T15:53:07;11.30;;;8.07;;
54517;SDS011;40423;53.176;6.002;2023-01-16T15:56:10;9.95;;;7.50;;
54517;SDS011;40423;53.176;6.002;2023-01-16T15:58:31;11.25;;;7.65;;
54517;SDS011;40423;53.176;6.002;2023-01-16T16:00:58;8.75;;;6.93;;
54517;SDS011;40423;53.176;6.002;2023-01-16T16:03:44;8.25;;;6.05;;
54517;SDS011;40423;53.176;6.002;2023-01-16T16:06:12;9.93;;;7.68;;
54517;SDS011;40423;53.176;6.002;2023-01-16T16:08:44;11.15;;;7.10;;
54517;SDS011;40423;53.176;6.002;2023-01-16T16:11:21;9.70;;;7.15;;
54517;SDS011;40423;53.176;6.002;2023-01-16T16:14:14;10.77;;;6.95;;
54517;SDS011;40423;53.176;6.002;2023-01-16T16:17:21;8.85;;;7.32;;
54517;SDS011;40423;53.176;6.002;2023-01-16T16:20:29;9.60;;;7.10;;
54517;SDS011;40423;53.176;6.002;2023-01-16T16:23:04;9.70;;;7.50;;
54517;SDS011;40423;53.176;6.002;2023-01-16T16:28:36;10.43;;;7.07;;
54517;SDS011;40423;53.176;6.002;2023-01-16T16:31:23;9.52;;;7.57;;
54517;SDS011;40423;53.176;6.002;2023-01-16T16:36:22;9.00;;;7.53;;
54517;SDS011;40423;53.176;6.002;2023-01-16T16:38:49;14.35;;;8.10;;
54517;SDS011;40423;53.176;6.002;2023-01-16T16:43:47;9.95;;;8.70;;
54517;SDS011;40423;53.176;6.002;2023-01-16T16:48:54;13.02;;;8.95;;
54517;SDS011;40423;53.176;6.002;2023-01-16T16:51:34;11.75;;;8.93;;
54517;SDS011;40423;53.176;6.002;2023-01-16T16:54:10;12.15;;;9.48;;
54517;SDS011;40423;53.176;6.002;2023-01-16T16:56:39;10.73;;;8.48;;
54517;SDS011;40423;53.176;6.002;2023-01-16T17:01:42;11.38;;;9.95;;
54517;SDS011;40423;53.176;6.002;2023-01-16T17:04:13;12.98;;;10.48;;
54517;SDS011;40423;53.176;6.002;2023-01-16T17:06:41;22.92;;;15.57;;
54517;SDS011;40423;53.176;6.002;2023-01-16T17:09:12;16.70;;;12.60;;
54517;SDS011;40423;53.176;6.002;2023-01-16T17:11:42;23.95;;;17.80;;
54517;SDS011;40423;53.176;6.002;2023-01-16T17:14:08;20.30;;;12.93;;
54517;SDS011;40423;53.176;6.002;2023-01-16T17:16:34;17.27;;;13.30;;
54517;SDS011;40423;53.176;6.002;2023-01-16T17:19:04;14.65;;;11.50;;
54517;SDS011;40423;53.176;6.002;2023-01-16T17:21:42;14.70;;;11.45;;
54517;SDS011;40423;53.176;6.002;2023-01-16T17:24:13;14.48;;;11.25;;
54517;SDS011;40423;53.176;6.002;2023-01-16T17:26:40;14.48;;;11.40;;
54517;SDS011;40423;53.176;6.002;2023-01-16T17:29:06;13.40;;;10.57;;
54517;SDS011;40423;53.176;6.002;2023-01-16T17:31:32;14.90;;;11.10;;
54517;SDS011;40423;53.176;6.002;2023-01-16T17:34:03;14.82;;;9.55;;
54517;SDS011;40423;53.176;6.002;2023-01-16T17:36:29;14.63;;;10.05;;
54517;SDS011;40423;53.176;6.002;2023-01-16T17:38:57;14.65;;;10.32;;
54517;SDS011;40423;53.176;6.002;2023-01-16T17:41:24;16.33;;;10.55;;
54517;SDS011;40423;53.176;6.002;2023-01-16T17:43:56;17.88;;;11.13;;
54517;SDS011;40423;53.176;6.002;2023-01-16T17:46:40;27.15;;;17.70;;
54517;SDS011;40423;53.176;6.002;2023-01-16T17:49:06;66.55;;;37.38;;
54517;SDS011;40423;53.176;6.002;2023-01-16T17:51:32;16.00;;;11.73;;
54517;SDS011;40423;53.176;6.002;2023-01-16T17:53:58;16.67;;;11.52;;
54517;SDS011;40423;53.176;6.002;2023-01-16T17:56:25;17.75;;;10.85;;
54517;SDS011;40423;53.176;6.002;2023-01-16T17:58:51;24.20;;;12.65;;
54517;SDS011;40423;53.176;6.002;2023-01-16T18:01:29;13.52;;;8.25;;
54517;SDS011;40423;53.176;6.002;2023-01-16T18:03:58;10.65;;;6.97;;
54517;SDS011;40423;53.176;6.002;2023-01-16T18:06:39;21.35;;;10.85;;
54517;SDS011;40423;53.176;6.002;2023-01-16T18:09:06;8.63;;;6.20;;
54517;SDS011;40423;53.176;6.002;2023-01-16T18:11:34;13.02;;;7.13;;
54517;SDS011;40423;53.176;6.002;2023-01-16T18:14:23;10.35;;;6.95;;
54517;SDS011;40423;53.176;6.002;2023-01-16T18:17:12;14.32;;;8.85;;
54517;SDS011;40423;53.176;6.002;2023-01-16T18:19:52;11.93;;;8.13;;
54517;SDS011;40423;53.176;6.002;2023-01-16T18:22:25;11.93;;;7.95;;